Latest Weather Observations for Glen Innes Airport

IDN60801

Issued at 9:02 am EST Monday 25 May 2015 (issued every 30 minutes, with the page automatically refreshed every 10 minutes)

About weather observations | Map of weather stations | Latest weather observations for NSW | Other Formats
Station Details ID: 056243 Name: GLEN INNES AIRPORT AWS Lat: -29.68 Lon: 151.69 Height: 1044.3 m
Data from the previous 72 hours. | See also: Recent months for locations in New South Wales
Date/Time
EST
Temp
°C
App
Temp
°C
Dew
Point
Rel
Hum
%
Delta-T
°C
Wind Press
QNH
hPa
Press
MSL
hPa
Rain
since 9 am
mm
Dir
 
Spd
km/h
Gust
km/h
Spd
kts
Gust
kts
25/09:00am 9.0 6.2 6.8 86 1.1 ESE 11 13 6 7 1033.3 1032.7 0.2
25/08:30am 6.9 3.4 5.5 91 0.7 ESE 13 17 7 9 1032.8 1032.1 0.2
25/08:00am 4.7 0.6 4.3 97 0.2 ESE 15 17 8 9 1032.3 1031.6 0.2
25/07:30am 3.9 0.0 3.6 98 0.1 SE 13 19 7 10 1032.0 1031.3 0.2
25/07:00am 1.5 -2.8 1.2 98 0.1 SE 13 15 7 8 1032.0 1031.3 0.2
25/06:30am 0.7 -3.7 0.4 98 0.1 SSE 13 13 7 7 1032.0 1031.3 0.2
25/06:00am 0.9 -2.3 0.6 98 0.1 ESE 7 13 4 7 1031.9 1031.2 0.2
25/05:30am 0.2 -3.9 -0.1 98 0.1 ESE 11 13 6 7 1031.8 1031.1 0.2
25/05:14am 0.6 -3.0 0.3 98 0.1 SE 9 13 5 7 1031.8 1031.1 0.2
25/05:11am 0.9 -2.7 0.8 99 0.0 SE 9 13 5 7 1031.6 1030.8 0.2
25/05:00am 0.7 -3.3 0.4 98 0.1 ESE 11 17 6 9 1031.6 1030.8 0.2
25/04:57am 0.9 -3.4 0.8 99 0.0 ESE 13 17 7 9 1031.6 1030.8 0.2
25/04:52am 0.7 -4.0 0.6 99 0.0 ESE 15 17 8 9 1031.4 1030.7 0.2
25/04:45am 0.7 -4.1 0.4 98 0.1 E 15 17 8 9 1031.4 1030.7 0.2
25/04:34am 0.7 -3.3 0.4 98 0.1 E 11 13 6 7 1031.3 1030.6 0.2
25/04:30am 0.8 -3.2 0.5 98 0.1 E 11 13 6 7 1031.3 1030.6 0.2
25/04:28am 1.0 -3.0 0.7 98 0.1 E 11 13 6 7 1031.3 1030.6 0.2
25/04:23am 1.1 -2.8 1.0 99 0.0 E 11 13 6 7 1031.3 1030.6 0.2
25/04:20am 1.1 -2.8 1.0 99 0.0 E 11 13 6 7 1031.4 1030.7 0.2
25/04:00am 0.1 -3.1 -0.2 98 0.1 ESE 6 9 3 5 1031.6 1030.8 0.2
25/03:55am 0.3 -2.8 0.0 98 0.1 ESE 6 7 3 4 1031.6 1030.8 0.2
25/03:49am 0.1 -3.2 -0.2 98 0.1 ESE 7 11 4 6 1031.7 1031.0 0.2
25/03:30am 0.8 -3.2 0.5 98 0.1 ESE 11 11 6 6 1031.7 1031.0 0.2
25/03:15am 1.1 -2.9 0.8 98 0.1 ESE 11 13 6 7 1032.0 1031.3 0.2
25/03:00am 0.9 -2.7 0.6 98 0.1 ESE 9 11 5 6 1032.0 1031.3 0.2
25/02:55am 1.0 -3.0 0.7 98 0.1 ESE 11 13 6 7 1032.1 1031.4 0.2
25/02:44am 1.6 -2.7 1.3 98 0.1 E 13 15 7 8 1032.2 1031.5 0.2
25/02:41am 1.7 -2.5 1.4 98 0.1 E 13 15 7 8 1032.2 1031.5 0.2
25/02:33am 1.9 -1.5 1.6 98 0.1 ENE 9 13 5 7 1032.1 1031.4 0.2
25/02:30am 2.0 -1.4 1.7 98 0.1 E 9 11 5 6 1032.1 1031.4 0.2
25/02:25am 1.5 -2.0 1.2 98 0.1 ESE 9 11 5 6 1032.1 1031.4 0.2
25/02:19am 1.0 -2.2 0.7 98 0.1 SE 7 9 4 5 1032.0 1031.3 0.2
25/02:16am 1.0 -2.2 0.6 97 0.2 ESE 7 9 4 5 1032.0 1031.3 0.0
25/02:00am 1.6 -1.5 1.3 98 0.1 ESE 7 9 4 5 1032.1 1031.4 0.0
25/01:30am 2.2 -2.0 1.9 98 0.1 ESE 13 15 7 8 1032.2 1031.5 0.0
25/01:04am 1.9 -1.2 1.3 96 0.2 ESE 7 9 4 5 1032.1 1031.4 0.0
25/01:00am 2.1 -1.0 1.5 96 0.2 ESE 7 9 4 5 1032.2 1031.5 0.0
25/12:54am 2.3 -0.7 1.7 96 0.2 ESE 7 9 4 5 1032.2 1031.5 0.0
25/12:30am 3.7 1.1 3.1 96 0.3 SE 6 7 3 4 1032.3 1031.6 0.0
25/12:00am 6.2 2.8 5.8 97 0.2 SE 13 19 7 10 1032.4 1031.8 0.0
 
Date/Time
EST
Temp
°C
App
Temp
°C
Dew
Point
Rel
Hum
%
Delta-T
°C
Wind Press
QNH
hPa
Press
MSL
hPa
Rain
since 9 am
mm
Dir
 
Spd
km/h
Gust
km/h
Spd
kts
Gust
kts
24/11:30pm 7.0 4.1 6.6 97 0.2 SE 11 15 6 8 1032.3 1031.6 0.0
24/11:11pm 7.1 3.9 6.7 97 0.2 ESE 13 17 7 9 1032.2 1031.5 0.0
24/11:00pm 7.0 3.7 6.6 97 0.2 ESE 13 17 7 9 1032.3 1031.6 0.0
24/10:51pm 7.0 4.1 6.6 97 0.2 SE 11 17 6 9 1032.4 1031.8 0.0
24/10:45pm 6.7 3.4 6.4 98 0.1 SE 13 19 7 10 1032.4 1031.8 0.0
24/10:32pm 5.2 1.6 4.9 98 0.1 SE 13 17 7 9 1032.4 1031.8 0.0
24/10:30pm 4.1 0.3 3.7 97 0.2 SE 13 15 7 8 1032.4 1031.8 0.0
24/10:29pm 3.9 0.4 3.5 97 0.2 SE 11 15 6 8 1032.4 1031.8 0.0
24/10:25pm 2.9 -0.8 2.3 96 0.3 SE 11 13 6 7 1032.3 1031.6 0.0
24/10:03pm 3.5 -0.1 3.1 97 0.2 SE 11 13 6 7 1032.2 1031.5 0.0
24/10:00pm 3.5 -0.1 3.1 97 0.2 SE 11 13 6 7 1032.1 1031.4 0.0
24/09:30pm 3.3 -0.4 2.6 95 0.3 SSE 11 13 6 7 1032.4 1031.8 0.0
24/09:00pm 3.2 -0.5 2.6 96 0.3 SE 11 13 6 7 1032.1 1031.4 0.0
24/08:30pm 3.6 0.3 2.7 94 0.4 SE 9 9 5 5 1032.3 1031.6 0.0
24/08:00pm 3.8 0.8 1.8 87 0.8 ESE 7 9 4 5 1032.2 1031.5 0.0
24/07:30pm 5.4 2.9 3.9 90 0.7 ESE 6 7 3 4 1031.8 1031.1 0.0
24/07:00pm 4.7 1.3 2.1 83 1.1 ESE 9 9 5 5 1031.7 1031.0 0.0
24/06:30pm 6.8 4.4 4.1 83 1.2 E 6 7 3 4 1031.4 1030.7 0.0
24/06:00pm 7.0 3.1 3.4 78 1.6 E 13 19 7 10 1030.9 1030.2 0.0
24/05:30pm 8.4 4.7 4.6 77 1.8 E 13 19 7 10 1030.9 1030.2 0.0
24/05:00pm 9.6 5.9 4.2 69 2.5 ENE 13 13 7 7 1030.7 1029.9 0.0
24/04:30pm 12.3 8.2 4.5 59 3.8 ENE 15 17 8 9 1030.6 1029.8 0.0
24/04:00pm 13.5 9.4 4.4 54 4.4 E 15 19 8 10 1030.3 1029.6 0.0
24/03:30pm 13.8 9.9 3.3 49 5.0 ESE 13 19 7 10 1029.9 1029.1 0.0
24/03:00pm 14.2 9.6 3.7 49 5.0 E 17 22 9 12 1029.9 1029.1 0.0
24/02:30pm 14.4 10.4 2.9 46 5.5 ENE 13 20 7 11 1030.0 1029.3 0.0
24/02:00pm 14.3 10.0 5.1 54 4.5 E 17 26 9 14 1029.8 1029.0 0.0
24/01:30pm 14.2 10.0 3.9 50 5.0 ESE 15 20 8 11 1029.8 1029.0 0.0
24/01:00pm 14.0 9.4 5.4 56 4.3 ESE 19 26 10 14 1029.8 1029.0 0.0
24/12:30pm 14.0 8.9 4.3 52 4.7 ENE 20 26 11 14 1029.9 1029.1 0.0
24/12:00pm 13.8 8.9 4.9 55 4.4 ESE 20 30 11 16 1030.5 1029.7 0.0
24/11:30am 13.1 7.9 5.3 59 3.9 E 22 33 12 18 1030.6 1029.8 0.0
24/11:00am 12.5 7.0 5.7 63 3.4 E 24 32 13 17 1031.1 1030.4 0.0
24/10:30am 12.2 7.4 5.8 65 3.2 E 20 28 11 15 1031.3 1030.6 0.0
24/10:00am 11.1 6.6 6.3 72 2.4 ESE 19 26 10 14 1031.7 1031.0 0.0
24/09:30am 9.7 5.2 6.1 78 1.8 ESE 19 24 10 13 1031.4 1030.7 0.0
24/09:00am 8.8 4.7 6.1 83 1.3 SE 17 20 9 11 1031.2 1030.5 0.0
24/08:30am 7.6 4.1 5.4 86 1.0 SE 13 15 7 8 1031.2 1030.5 0.0
24/08:00am 5.9 3.1 5.0 94 0.4 ESE 9 11 5 6 1030.8 1030.1 0.0
24/07:30am 2.8 -0.1 2.4 97 0.2 ESE 7 9 4 5 1030.5 1029.7 0.0
24/07:00am 1.1 -1.9 0.8 98 0.1 E 6 9 3 5 1030.0 1029.3 0.0
24/06:30am 0.1 -4.4 -0.3 97 0.2 E 13 13 7 7 1029.6 1028.8 0.0
24/06:00am 0.3 -4.2 -0.1 97 0.2 E 13 15 7 8 1029.2 1028.5 0.0
24/05:30am 0.7 -3.7 0.4 98 0.1 E 13 15 7 8 1028.8 1028.0 0.0
24/05:00am 0.3 -4.2 -0.3 96 0.2 E 13 15 7 8 1028.7 1027.9 0.0
24/04:30am 0.8 -2.5 -0.2 93 0.4 E 7 11 4 6 1028.6 1027.8 0.0
24/04:00am 2.8 -0.6 2.1 95 0.3 SE 9 11 5 6 1028.5 1027.7 0.0
24/03:30am 3.3 -0.8 2.3 93 0.4 SE 13 15 7 8 1028.1 1027.3 0.0
24/03:00am 2.7 -1.5 1.5 92 0.5 ESE 13 13 7 7 1028.1 1027.3 0.0
24/02:30am 4.4 -0.2 3.8 96 0.3 SE 17 20 9 11 1028.3 1027.6 0.0
24/02:20am 4.3 -0.6 4.0 98 0.1 SE 19 24 10 13 1028.3 1027.6 0.0
24/02:00am 0.3 -2.9 -0.4 95 0.3 SSE 6 11 3 6 1028.3 1027.6 0.0
24/01:57am 0.5 -1.9 -0.2 95 0.3 NW 2 9 1 5 1028.3 1027.6 0.0
24/01:30am 1.6 -0.2 1.0 96 0.2 CALM 0 0 0 0 1028.3 1027.6 0.0
24/01:00am 1.6 -0.7 0.7 94 0.4 NW 2 7 1 4 1028.6 1027.8 0.0
24/12:30am 2.1 -0.9 1.1 93 0.4 SSE 6 7 3 4 1028.5 1027.7 0.0
24/12:00am 3.3 0.0 2.4 94 0.4 SE 9 9 5 5 1028.3 1027.6 0.0
 
Date/Time
EST
Temp
°C
App
Temp
°C
Dew
Point
Rel
Hum
%
Delta-T
°C
Wind Press
QNH
hPa
Press
MSL
hPa
Rain
since 9 am
mm
Dir
 
Spd
km/h
Gust
km/h
Spd
kts
Gust
kts
23/11:30pm 3.5 0.2 2.3 92 0.5 SE 9 11 5 6 1028.5 1027.7 0.0
23/11:00pm 3.4 -0.3 2.5 94 0.4 SE 11 15 6 8 1028.6 1027.8 0.0
23/10:30pm 3.2 -0.5 2.3 94 0.4 SE 11 13 6 7 1028.8 1028.0 0.0
23/10:00pm 4.4 1.6 3.2 92 0.5 SSE 7 11 4 6 1028.8 1028.0 0.0
23/09:30pm 5.1 1.7 3.8 91 0.6 ESE 11 13 6 7 1028.6 1027.8 0.0
23/09:00pm 6.4 2.3 4.2 86 1.0 ESE 15 17 8 9 1028.5 1027.7 0.0
23/08:30pm 8.5 4.7 6.0 84 1.2 SE 15 20 8 11 1028.3 1027.6 0.0
23/08:00pm 7.7 3.5 5.7 87 1.0 SSE 17 24 9 13 1028.2 1027.4 0.0
23/07:30pm 7.5 4.3 3.2 74 1.9 S 9 11 5 6 1027.9 1027.1 0.0
23/07:00pm 9.0 4.5 4.0 71 2.3 SE 17 24 9 13 1027.7 1026.9 0.0
23/06:30pm 7.0 2.8 3.8 80 1.5 SE 15 19 8 10 1027.6 1026.8 0.0
23/06:00pm 7.9 4.5 3.8 75 1.9 ESE 11 13 6 7 1027.5 1026.7 0.0
23/05:30pm 8.8 5.0 4.0 72 2.2 SE 13 15 7 8 1027.4 1026.5 0.0
23/05:00pm 9.6 6.1 3.4 65 2.8 ESE 11 13 6 7 1027.2 1026.4 0.0
23/04:30pm 11.6 7.8 4.1 60 3.6 E 13 13 7 7 1027.0 1026.2 0.0
23/04:00pm 12.0 6.9 3.0 54 4.2 SE 19 24 10 13 1026.8 1026.0 0.0
23/03:30pm 12.9 7.6 3.0 51 4.7 SE 20 28 11 15 1026.6 1025.8 0.0
23/03:00pm 13.4 8.1 3.2 50 4.8 SE 20 28 11 15 1026.4 1025.5 0.0
23/02:30pm 13.7 8.7 4.6 54 4.5 SE 20 28 11 15 1026.2 1025.4 0.0
23/02:00pm 13.8 8.8 4.4 53 4.6 SE 20 30 11 16 1026.0 1025.2 0.0
23/01:30pm 13.4 7.5 3.8 52 4.6 ESE 24 35 13 19 1026.1 1025.3 0.0
23/01:00pm 13.4 6.6 2.9 49 4.9 SE 28 35 15 19 1026.1 1025.3 0.0
23/12:30pm 13.4 7.2 4.3 54 4.4 SE 26 35 14 19 1026.1 1025.3 0.0
23/12:00pm 13.2 5.7 4.4 55 4.3 ESE 33 41 18 22 1026.1 1025.3 0.0
23/11:30am 12.8 5.4 5.2 60 3.7 SE 33 48 18 26 1026.2 1025.4 0.0
23/11:00am 11.9 3.2 4.2 59 3.7 SE 39 46 21 25 1026.2 1025.4 0.0
23/10:30am 11.7 2.2 4.0 59 3.7 ESE 43 56 23 30 1026.5 1025.6 0.0
23/10:00am 11.3 1.8 4.1 61 3.4 ESE 43 56 23 30 1026.4 1025.5 0.0
23/09:30am 10.3 1.7 4.5 67 2.8 ESE 39 50 21 27 1026.2 1025.4 0.0
23/09:00am 9.9 1.2 4.1 67 2.7 SE 39 52 21 28 1026.1 1025.3 0.4
23/08:30am 9.3 1.1 4.7 73 2.2 ESE 37 46 20 25 1025.7 1024.8 0.4
23/08:00am 8.2 -0.2 3.5 72 2.1 SE 37 48 20 26 1025.0 1024.2 0.4
23/07:30am 7.6 -0.5 3.3 74 1.9 ESE 35 48 19 26 1024.8 1023.9 0.4
23/07:00am 7.2 -0.5 3.3 76 1.8 SE 33 44 18 24 1024.3 1023.4 0.4
23/06:30am 6.5 0.1 3.3 80 1.4 SE 26 39 14 21 1023.6 1022.7 0.4
23/06:00am 6.8 -0.3 3.4 79 1.5 SE 30 39 16 21 1023.0 1022.1 0.4
23/05:30am 6.9 -1.5 3.5 79 1.5 SE 37 46 20 25 1022.5 1021.6 0.4
23/05:00am 6.9 -0.5 3.9 81 1.4 SE 32 39 17 21 1022.3 1021.3 0.4
23/04:30am 7.2 -0.4 3.8 79 1.6 SE 33 50 18 27 1022.0 1021.1 0.4
23/04:05am 7.0 -1.1 3.4 78 1.6 SE 35 54 19 29 1021.8 1020.9 0.4
23/04:00am 7.1 -1.8 3.3 77 1.7 SE 39 54 21 29 1021.7 1020.8 0.4
23/03:30am 7.4 -1.8 3.5 76 1.8 SE 41 54 22 29 1022.0 1021.1 0.4
23/03:00am 7.2 -0.9 3.4 77 1.7 SE 35 44 19 24 1022.2 1021.2 0.4
23/02:30am 6.9 -0.2 3.3 78 1.6 SE 30 35 16 19 1022.2 1021.2 0.4
23/02:00am 7.8 0.4 3.8 76 1.8 SE 32 43 17 23 1022.5 1021.6 0.4
23/01:31am 8.2 0.6 4.0 75 1.9 SE 33 52 18 28 1022.5 1021.6 0.4
23/01:30am 8.3 0.4 4.1 75 2.0 SE 35 52 19 28 1022.4 1021.4 0.4
23/01:27am 8.5 1.1 4.1 74 2.0 SE 32 52 17 28 1022.4 1021.4 0.4
23/01:00am 8.3 1.3 4.1 75 1.9 SE 30 41 16 22 1022.4 1021.4 0.4
23/12:30am 8.2 0.6 4.0 75 1.9 SE 33 44 18 24 1022.4 1021.4 0.4
23/12:00am 8.4 1.8 4.2 75 1.9 SSE 28 37 15 20 1022.4 1021.4 0.4
 
Date/Time
EST
Temp
°C
App
Temp
°C
Dew
Point
Rel
Hum
%
Delta-T
°C
Wind Press
QNH
hPa
Press
MSL
hPa
Rain
since 9 am
mm
Dir
 
Spd
km/h
Gust
km/h
Spd
kts
Gust
kts
22/11:30pm 8.3 3.4 4.9 79 1.6 SSE 20 26 11 14 1022.4 1021.4 0.4
22/11:00pm 8.3 2.3 5.1 80 1.5 SSE 26 37 14 20 1022.2 1021.2 0.4
22/10:30pm 8.5 1.8 5.6 82 1.4 SSE 30 37 16 20 1021.8 1020.9 0.4
22/10:00pm 8.8 2.5 5.5 80 1.6 S 28 41 15 22 1021.8 1020.9 0.4
22/09:30pm 8.9 4.3 5.8 81 1.5 SSW 19 30 10 16 1021.8 1020.9 0.4
22/09:00pm 8.8 4.2 5.7 81 1.5 S 19 26 10 14 1021.8 1020.9 0.4
22/08:30pm 8.7 4.5 5.8 82 1.4 SSW 17 22 9 12 1021.7 1020.8 0.4
22/08:00pm 8.9 4.1 5.6 80 1.6 SSW 20 28 11 15 1021.4 1020.4 0.4
22/07:30pm 8.5 3.9 5.4 81 1.5 SSW 19 28 10 15 1020.8 1019.9 0.4
22/07:00pm 8.4 3.8 5.5 82 1.4 SSW 19 28 10 15 1020.7 1019.7 0.4
22/06:30pm 8.4 3.2 5.5 82 1.4 SSW 22 33 12 18 1020.3 1019.3 0.4
22/06:00pm 8.3 3.2 5.9 85 1.2 SW 22 30 12 16 1019.9 1019.0 0.4
22/05:37pm 8.2 2.8 6.5 89 0.8 SW 24 33 13 18 1019.7 1018.7 0.4
22/05:30pm 8.2 3.3 6.7 90 0.7 SW 22 33 12 18 1019.5 1018.5 0.4
22/05:19pm 7.9 2.6 6.8 93 0.5 WSW 24 32 13 17 1019.5 1018.5 0.4
22/05:00pm 7.9 3.4 7.0 94 0.4 WSW 20 30 11 16 1019.5 1018.5 0.2
22/04:30pm 8.0 2.7 6.8 92 0.6 WSW 24 35 13 19 1019.2 1018.2 0.0
22/04:15pm 8.1 2.8 6.7 91 0.7 WSW 24 32 13 17 1019.1 1018.1 0.0
22/04:04pm 8.3 3.3 6.4 88 0.9 WSW 22 33 12 18 1018.9 1017.9 0.0
22/04:00pm 8.4 3.4 6.4 87 1.0 WSW 22 32 12 17 1018.9 1017.9 0.0
22/03:30pm 9.2 3.7 5.8 79 1.7 WSW 24 30 13 16 1018.4 1017.4 0.0
22/03:00pm 9.0 2.6 5.4 78 1.7 WSW 28 35 15 19 1018.3 1017.3 0.0
22/02:30pm 9.4 3.4 5.2 75 2.0 WSW 26 35 14 19 1018.1 1017.0 0.0
22/02:00pm 10.2 3.9 5.8 74 2.2 W 28 37 15 20 1017.3 1016.2 0.0
22/01:30pm 10.1 3.9 6.3 77 1.9 WSW 28 37 15 20 1017.5 1016.5 0.0
22/01:00pm 8.6 3.0 5.2 79 1.6 W 24 35 13 19 1017.7 1016.7 0.0
22/12:30pm 8.7 3.3 4.3 74 2.1 WSW 22 32 12 17 1017.9 1016.9 0.0
22/12:00pm 8.5 2.9 5.3 80 1.5 WSW 24 30 13 16 1018.1 1017.0 0.0
22/11:30am 7.6 0.8 4.9 83 1.3 WSW 30 39 16 21 1018.4 1017.4 0.0
22/11:23am 7.7 1.2 4.5 80 1.5 WSW 28 39 15 21 1018.5 1017.5 0.0
22/11:00am 7.6 1.9 4.7 82 1.4 WSW 24 32 13 17 1018.7 1017.7 0.0
22/10:30am 7.8 1.3 4.7 81 1.5 W 28 35 15 19 1018.8 1017.8 0.0
22/10:09am 7.2 1.0 4.5 83 1.3 WSW 26 33 14 18 1018.9 1017.9 0.0
22/10:00am 7.2 0.6 4.2 81 1.4 W 28 41 15 22 1018.9 1017.9 0.0
22/09:30am 8.0 2.3 4.9 81 1.5 W 24 35 13 19 1018.5 1017.5 0.0
22/09:14am 7.2 1.8 4.5 83 1.3 W 22 32 12 17 1018.4 1017.4 0.0

Other Formats:

Comma delimited format used in spreadsheet applications
http://www.bom.gov.au/fwo/IDN60801/IDN60801.94588.axf

JavaScript Object Notation format (JSON) in row-major order
http://www.bom.gov.au/fwo/IDN60801/IDN60801.94588.json